createdAt,value
2017-11-25T00:00:41.307Z,7.91
2017-11-25T00:01:50.387Z,7.95
2017-11-25T00:02:59.467Z,7.8
2017-11-25T00:04:08.004Z,7.88
2017-11-25T00:05:17.079Z,7.86
2017-11-25T00:06:25.624Z,7.77
2017-11-25T00:07:34.440Z,7.89
2017-11-25T00:08:43.790Z,7.89
2017-11-25T00:09:52.334Z,7.89
2017-11-25T00:11:01.422Z,7.82
2017-11-25T00:12:10.518Z,7.83
2017-11-25T00:13:19.056Z,7.92
2017-11-25T00:14:28.146Z,7.91
2017-11-25T00:15:36.952Z,7.89
2017-11-25T00:16:46.133Z,7.93
2017-11-25T00:17:55.228Z,7.92
2017-11-25T00:19:04.058Z,7.91
2017-11-25T00:20:12.579Z,7.91
2017-11-25T00:21:21.672Z,7.86
2017-11-25T00:22:30.494Z,7.92
2017-11-25T00:23:39.574Z,7.96
2017-11-25T00:24:48.118Z,7.96
2017-11-25T00:25:57.203Z,8.03
2017-11-25T00:27:06.295Z,7.93
2017-11-25T00:28:15.384Z,7.95
2017-11-25T00:29:24.466Z,7.96
2017-11-25T00:30:33.273Z,8.03
2017-11-25T00:31:41.816Z,7.96
2017-11-25T00:32:50.630Z,8.03
2017-11-25T00:33:59.440Z,7.98
2017-11-25T00:35:08.268Z,8.04
2017-11-25T00:36:17.355Z,8.04
2017-11-25T00:37:26.448Z,8.01
2017-11-25T00:38:35.255Z,8.04
2017-11-25T00:39:44.070Z,8.01
2017-11-25T00:40:53.149Z,7.96
2017-11-25T00:42:01.685Z,8.04
2017-11-25T00:43:10.498Z,7.99
2017-11-25T00:44:19.311Z,7.96
2017-11-25T00:45:28.389Z,8.01
2017-11-25T00:46:37.206Z,7.95
2017-11-25T00:47:45.744Z,7.95
2017-11-25T00:48:54.281Z,7.83
2017-11-25T00:50:03.369Z,7.82
2017-11-25T00:51:11.910Z,7.82
2017-11-25T00:52:20.714Z,7.92
2017-11-25T00:53:29.792Z,7.77
2017-11-25T00:54:38.332Z,7.7
2017-11-25T00:55:47.145Z,7.7
2017-11-25T00:56:55.685Z,7.61
2017-11-25T00:58:04.224Z,7.64
2017-11-25T00:59:12.762Z,7.61
2017-11-25T01:00:21.570Z,7.58
2017-11-25T01:01:30.382Z,7.51
2017-11-25T01:02:39.467Z,7.47
2017-11-25T01:03:48.034Z,7.54
2017-11-25T01:04:56.545Z,7.55
2017-11-25T01:06:05.627Z,7.39
2017-11-25T01:07:14.441Z,7.54
2017-11-25T01:08:23.519Z,7.45
2017-11-25T01:09:32.058Z,7.4
2017-11-25T01:10:41.134Z,7.39
2017-11-25T01:11:49.671Z,7.34
2017-11-25T01:12:58.211Z,7.36
2017-11-25T01:14:07.574Z,7.33
2017-11-25T01:15:16.669Z,7.27
2017-11-25T01:16:25.753Z,7.26
2017-11-25T01:17:34.292Z,7.33
2017-11-25T01:18:42.829Z,7.26
2017-11-25T01:19:51.640Z,7.31
2017-11-25T01:21:00.724Z,7.21
2017-11-25T01:22:09.261Z,7.29
2017-11-25T01:23:17.806Z,7.21
2017-11-25T01:24:26.619Z,7.23
2017-11-25T01:25:35.707Z,7.16
2017-11-25T01:26:44.539Z,7.16
2017-11-25T01:27:53.912Z,7.23
2017-11-25T01:29:02.439Z,7.23
2017-11-25T01:30:11.798Z,7.23
2017-11-25T01:31:20.338Z,7.33
2017-11-25T01:32:28.877Z,7.23
2017-11-25T01:33:37.419Z,7.33
2017-11-25T01:34:46.498Z,7.27
2017-11-25T01:35:55.308Z,7.22
2017-11-25T01:37:04.128Z,7.22
2017-11-25T01:38:12.665Z,7.21
2017-11-25T01:39:21.753Z,7.19
2017-11-25T01:40:30.562Z,7.26
2017-11-25T01:41:39.659Z,7.19
2017-11-25T01:42:48.199Z,7.33
2017-11-25T01:43:57.009Z,7.27
2017-11-25T01:45:05.828Z,7.23
2017-11-25T01:46:14.367Z,7.26
2017-11-25T01:47:22.908Z,7.22
2017-11-25T01:48:31.717Z,7.31
2017-11-25T01:49:40.524Z,7.19
2017-11-25T01:50:49.335Z,7.29
2017-11-25T01:51:58.142Z,7.19
2017-11-25T01:53:07.223Z,7.21
2017-11-25T01:54:16.031Z,7.15
2017-11-25T01:55:24.575Z,7.21
2017-11-25T01:56:33.374Z,7.18
2017-11-25T01:57:42.181Z,7.12
2017-11-25T01:58:50.991Z,7.12
2017-11-25T02:00:00.075Z,7.12
2017-11-25T02:01:08.885Z,7.11
2017-11-25T02:02:17.970Z,7.09
2017-11-25T02:03:26.791Z,7
2017-11-25T02:04:35.327Z,7.03
2017-11-25T02:05:44.675Z,7
2017-11-25T02:06:53.212Z,7.01
2017-11-25T02:08:01.752Z,6.98
2017-11-25T02:09:10.291Z,7.03
2017-11-25T02:10:19.372Z,7
2017-11-25T02:11:27.911Z,7.03
2017-11-25T02:12:36.721Z,7.16
2017-11-25T02:13:45.531Z,7.04
2017-11-25T02:14:54.071Z,7.13
2017-11-25T02:16:02.890Z,7.08
2017-11-25T02:17:11.695Z,7.09
2017-11-25T02:18:20.513Z,7.03
2017-11-25T02:19:29.326Z,7.13
2017-11-25T02:20:38.139Z,7.03
2017-11-25T02:21:47.223Z,6.97
2017-11-25T02:22:56.029Z,6.98
2017-11-25T02:24:04.569Z,6.95
2017-11-25T02:25:13.110Z,7.03
2017-11-25T02:26:21.923Z,7
2017-11-25T02:27:30.735Z,7.03
2017-11-25T02:28:39.554Z,7.03
2017-11-25T02:29:48.093Z,6.95
2017-11-25T02:30:57.500Z,6.94
2017-11-25T02:32:06.032Z,6.98
2017-11-25T02:33:14.572Z,7.04
2017-11-25T02:34:23.386Z,6.93
2017-11-25T02:35:32.485Z,7.03
2017-11-25T02:36:41.839Z,7.03
2017-11-25T02:37:50.376Z,7.03
2017-11-25T02:38:58.917Z,6.97
2017-11-25T02:40:07.740Z,7.01
2017-11-25T02:41:16.272Z,7.03
2017-11-25T02:42:25.360Z,7.01
2017-11-25T02:43:33.897Z,6.97
2017-11-25T02:44:42.437Z,6.94
2017-11-25T02:45:51.240Z,6.94
2017-11-25T02:47:00.062Z,6.93
2017-11-25T02:48:08.885Z,6.83
2017-11-25T02:49:17.698Z,6.98
2017-11-25T02:50:26.239Z,6.98
2017-11-25T02:51:34.778Z,6.88
2017-11-25T02:52:43.591Z,6.85
2017-11-25T02:53:52.414Z,6.93
2017-11-25T02:55:00.954Z,6.93
2017-11-25T02:56:10.037Z,6.95
2017-11-25T02:57:18.848Z,7
2017-11-25T02:58:27.657Z,6.9
2017-11-25T02:59:36.748Z,7.03
2017-11-25T03:00:45.548Z,6.97
2017-11-25T03:01:54.084Z,6.93
2017-11-25T03:03:02.903Z,7.05
2017-11-25T03:04:11.432Z,7.04
2017-11-25T03:05:19.971Z,6.98
2017-11-25T03:06:28.781Z,6.93
2017-11-25T03:07:37.320Z,6.95
2017-11-25T03:08:46.129Z,6.98
2017-11-25T03:09:54.940Z,6.95
2017-11-25T03:11:04.033Z,6.97
2017-11-25T03:12:13.109Z,6.91
2017-11-25T03:13:21.930Z,6.91
2017-11-25T03:14:30.469Z,6.88
2017-11-25T03:15:39.311Z,6.88
2017-11-25T03:16:48.419Z,6.94
2017-11-25T03:17:56.953Z,6.86
2017-11-25T03:19:05.488Z,6.93
2017-11-25T03:20:14.565Z,6.94
2017-11-25T03:21:23.375Z,6.91
2017-11-25T03:22:32.186Z,7
2017-11-25T03:23:40.733Z,6.98
2017-11-25T03:24:49.542Z,7.01
2017-11-25T03:25:58.351Z,6.98
2017-11-25T03:27:06.891Z,7.01
2017-11-25T03:28:15.428Z,6.98
2017-11-25T03:29:24.240Z,6.94
2017-11-25T03:30:33.056Z,7.04
2017-11-25T03:31:42.138Z,7.01
2017-11-25T03:32:51.225Z,6.95
2017-11-25T03:34:00.040Z,7.09
2017-11-25T03:35:09.129Z,7.01
2017-11-25T03:36:17.666Z,7.03
2017-11-25T03:37:26.745Z,6.95
2017-11-25T03:38:35.555Z,7.01
2017-11-25T03:39:44.363Z,7.04
2017-11-25T03:40:53.449Z,6.98
2017-11-25T03:42:01.991Z,7.09
2017-11-25T03:43:10.805Z,7.03
2017-11-25T03:44:19.342Z,7.05
2017-11-25T03:45:28.424Z,7
2017-11-25T03:46:37.502Z,6.97
2017-11-25T03:47:46.317Z,7.01
2017-11-25T03:48:55.126Z,6.98
2017-11-25T03:50:03.663Z,6.94
2017-11-25T03:51:12.202Z,7.01
2017-11-25T03:52:21.011Z,6.97
2017-11-25T03:53:29.820Z,6.95
2017-11-25T03:54:38.359Z,7.01
2017-11-25T03:55:46.901Z,6.97
2017-11-25T03:56:55.984Z,6.93
2017-11-25T03:58:04.796Z,7.01
2017-11-25T03:59:13.603Z,6.97
2017-11-25T04:00:22.412Z,7
2017-11-25T04:01:31.494Z,7.01
2017-11-25T04:02:40.035Z,6.93
2017-11-25T04:03:48.843Z,6.83
2017-11-25T04:04:57.934Z,6.9
2017-11-25T04:06:06.744Z,6.88
2017-11-25T04:07:15.821Z,6.93
2017-11-25T04:08:24.639Z,6.91
2017-11-25T04:09:33.173Z,6.86
2017-11-25T04:10:41.985Z,6.94
2017-11-25T04:11:50.522Z,6.93
2017-11-25T04:12:59.878Z,6.88
2017-11-25T04:14:08.415Z,6.79
2017-11-25T04:15:16.956Z,6.86
2017-11-25T04:16:25.506Z,6.88
2017-11-25T04:17:34.320Z,6.83
2017-11-25T04:18:43.120Z,6.78
2017-11-25T04:19:51.934Z,6.91
2017-11-25T04:21:00.742Z,6.82
2017-11-25T04:22:09.835Z,6.82
2017-11-25T04:23:18.371Z,6.85
2017-11-25T04:24:27.863Z,6.78
2017-11-25T04:25:37.229Z,6.83
2017-11-25T04:26:46.049Z,6.76
2017-11-25T04:27:54.860Z,6.78
2017-11-25T04:29:03.939Z,6.93
2017-11-25T04:30:12.752Z,6.79
2017-11-25T04:31:21.288Z,6.83
2017-11-25T04:32:29.829Z,6.79
2017-11-25T04:33:38.640Z,6.83
2017-11-25T04:34:47.446Z,6.83
2017-11-25T04:35:55.986Z,6.86
2017-11-25T04:37:05.069Z,6.78
2017-11-25T04:38:13.880Z,6.85
2017-11-25T04:39:22.690Z,6.75
2017-11-25T04:40:31.774Z,6.79
2017-11-25T04:41:40.315Z,6.78
2017-11-25T04:42:48.851Z,6.8
2017-11-25T04:43:57.662Z,6.79
2017-11-25T04:45:06.468Z,6.75
2017-11-25T04:46:15.007Z,6.78
2017-11-25T04:47:23.818Z,6.78
2017-11-25T04:48:32.357Z,6.73
2017-11-25T04:49:40.896Z,6.76
2017-11-25T04:50:49.703Z,6.76
2017-11-25T04:51:58.522Z,6.8
2017-11-25T04:53:07.337Z,6.76
2017-11-25T04:54:15.873Z,6.78
2017-11-25T04:55:24.409Z,6.76
2017-11-25T04:56:32.949Z,6.78
2017-11-25T04:57:41.770Z,6.73
2017-11-25T04:58:50.332Z,6.76
2017-11-25T04:59:59.144Z,6.76
2017-11-25T05:01:08.289Z,6.73
2017-11-25T05:02:17.409Z,6.8
2017-11-25T05:03:26.508Z,6.76
2017-11-25T05:04:35.046Z,6.75
2017-11-25T05:05:43.858Z,6.79
2017-11-25T05:06:52.667Z,6.8
2017-11-25T05:08:02.023Z,6.91
2017-11-25T05:09:11.112Z,6.8
2017-11-25T05:10:19.921Z,6.8
2017-11-25T05:11:28.732Z,6.82
2017-11-25T05:12:37.811Z,6.91
2017-11-25T05:13:46.631Z,6.86
2017-11-25T05:14:55.718Z,6.86
2017-11-25T05:16:04.251Z,6.85
2017-11-25T05:17:13.619Z,6.9
2017-11-25T05:18:22.150Z,6.86
2017-11-25T05:19:30.961Z,6.88
2017-11-25T05:20:39.768Z,6.83
2017-11-25T05:21:48.849Z,6.83
2017-11-25T05:22:57.384Z,6.82
2017-11-25T05:24:06.192Z,6.86
2017-11-25T05:25:15.000Z,6.91
2017-11-25T05:26:24.081Z,6.82
2017-11-25T05:27:32.619Z,6.85
2017-11-25T05:28:41.430Z,6.82
2017-11-25T05:29:50.249Z,6.82
2017-11-25T05:30:59.336Z,6.82
2017-11-25T05:32:08.692Z,6.8
2017-11-25T05:33:17.228Z,6.76
2017-11-25T05:34:25.769Z,6.8
2017-11-25T05:35:34.310Z,6.82
2017-11-25T05:36:43.119Z,6.86
2017-11-25T05:37:51.657Z,6.8
2017-11-25T05:39:00.192Z,6.85
2017-11-25T05:40:09.000Z,6.82
2017-11-25T05:41:17.540Z,6.76
2017-11-25T05:42:26.349Z,6.79
2017-11-25T05:43:35.164Z,6.75
2017-11-25T05:44:43.702Z,6.78
2017-11-25T05:45:52.787Z,6.78
2017-11-25T05:47:01.596Z,6.76
2017-11-25T05:48:10.133Z,6.7
2017-11-25T05:49:19.218Z,6.65
2017-11-25T05:50:28.307Z,6.61
2017-11-25T05:51:36.839Z,6.6
2017-11-25T05:52:45.923Z,6.64
2017-11-25T05:53:55.002Z,6.58
2017-11-25T05:55:03.541Z,6.62
2017-11-25T05:56:12.347Z,6.57
2017-11-25T05:57:20.889Z,6.52
2017-11-25T05:58:29.987Z,6.37
2017-11-25T05:59:39.077Z,6.37
2017-11-25T06:00:47.888Z,6.4
2017-11-25T06:01:56.981Z,6.42
2017-11-25T06:03:05.520Z,6.4
2017-11-25T06:04:14.334Z,6.36
2017-11-25T06:05:23.150Z,6.39
2017-11-25T06:06:31.687Z,6.34
2017-11-25T06:07:40.497Z,6.34
2017-11-25T06:08:49.858Z,6.33
2017-11-25T06:09:58.677Z,6.29
2017-11-25T06:11:07.492Z,6.36
2017-11-25T06:12:16.300Z,6.36
2017-11-25T06:13:25.394Z,6.31
2017-11-25T06:14:34.203Z,6.31
2017-11-25T06:15:43.013Z,6.28
2017-11-25T06:16:51.570Z,6.29
2017-11-25T06:18:00.387Z,6.31
2017-11-25T06:19:08.923Z,6.26
2017-11-25T06:20:18.016Z,6.21
2017-11-25T06:21:27.108Z,6.26
2017-11-25T06:22:35.642Z,6.24
2017-11-25T06:23:44.453Z,6.29
2017-11-25T06:24:53.262Z,6.25
2017-11-25T06:26:02.086Z,6.26
2017-11-25T06:27:10.620Z,6.21
2017-11-25T06:28:19.435Z,6.26
2017-11-25T06:29:28.240Z,6.26
2017-11-25T06:30:36.780Z,6.26
2017-11-25T06:31:45.315Z,6.24
2017-11-25T06:32:53.855Z,6.2
2017-11-25T06:34:02.395Z,6.17
2017-11-25T06:35:10.931Z,6.28
2017-11-25T06:36:19.733Z,6.15
2017-11-25T06:37:28.274Z,6.21
2017-11-25T06:38:37.350Z,6.1
2017-11-25T06:39:46.158Z,6.14
2017-11-25T06:40:55.237Z,6.14
2017-11-25T06:42:03.773Z,6.14
2017-11-25T06:43:12.856Z,6.14
2017-11-25T06:44:21.395Z,6.18
2017-11-25T06:45:30.482Z,6.13
2017-11-25T06:46:39.018Z,6.13
2017-11-25T06:47:48.127Z,6.21
2017-11-25T06:48:56.919Z,6.03
2017-11-25T06:50:05.729Z,6.2
2017-11-25T06:51:14.265Z,5.96
2017-11-25T06:52:23.076Z,6.07
2017-11-25T06:53:32.292Z,6.03
2017-11-25T06:54:40.828Z,6.03
2017-11-25T06:55:49.918Z,5.98
2017-11-25T06:56:59.268Z,5.99
2017-11-25T06:58:08.073Z,5.95
2017-11-25T06:59:16.881Z,5.95
2017-11-25T07:00:26.041Z,5.95
2017-11-25T07:01:35.127Z,5.92
2017-11-25T07:02:43.660Z,5.87
2017-11-25T07:03:52.797Z,5.84
2017-11-25T07:05:01.605Z,5.87
2017-11-25T07:06:10.422Z,5.85
2017-11-25T07:07:18.959Z,5.85
2017-11-25T07:08:27.774Z,5.85
2017-11-25T07:09:36.594Z,5.81
2017-11-25T07:10:45.405Z,5.8
2017-11-25T07:11:54.216Z,5.82
2017-11-25T07:13:03.606Z,5.77
2017-11-25T07:14:12.425Z,5.8
2017-11-25T07:15:21.235Z,5.73
2017-11-25T07:16:30.321Z,5.88
2017-11-25T07:17:38.857Z,5.82
2017-11-25T07:18:47.390Z,5.77
2017-11-25T07:19:56.484Z,5.81
2017-11-25T07:21:05.020Z,5.81
2017-11-25T07:22:13.557Z,5.8
2017-11-25T07:23:22.644Z,5.78
2017-11-25T07:24:31.451Z,5.84
2017-11-25T07:25:40.265Z,5.82
2017-11-25T07:26:49.073Z,5.81
2017-11-25T07:27:57.608Z,5.82
2017-11-25T07:29:06.146Z,5.84
2017-11-25T07:30:15.234Z,5.82
2017-11-25T07:31:23.772Z,5.82
2017-11-25T07:32:32.580Z,5.85
2017-11-25T07:33:41.488Z,5.75
2017-11-25T07:34:50.572Z,5.78
2017-11-25T07:35:59.381Z,5.75
2017-11-25T07:37:09.031Z,5.77
2017-11-25T07:38:17.562Z,5.77
2017-11-25T07:39:26.101Z,5.8
2017-11-25T07:40:34.920Z,5.85
2017-11-25T07:41:43.728Z,5.73
2017-11-25T07:42:52.541Z,5.82
2017-11-25T07:44:01.346Z,5.8
2017-11-25T07:45:09.881Z,5.78
2017-11-25T07:46:18.719Z,5.73
2017-11-25T07:47:27.797Z,5.8
2017-11-25T07:48:36.608Z,5.81
2017-11-25T07:49:45.147Z,5.81
2017-11-25T07:50:53.689Z,5.81
2017-11-25T07:52:02.779Z,5.84
2017-11-25T07:53:11.857Z,5.7
2017-11-25T07:54:20.938Z,5.72
2017-11-25T07:55:29.748Z,5.73
2017-11-25T07:56:38.560Z,5.77
2017-11-25T07:57:47.372Z,5.72
2017-11-25T07:58:56.185Z,5.78
2017-11-25T08:00:04.721Z,5.66
2017-11-25T08:01:13.543Z,5.73
2017-11-25T08:02:22.349Z,5.72
2017-11-25T08:03:31.171Z,5.69
2017-11-25T08:04:39.701Z,5.69
2017-11-25T08:05:48.509Z,5.67
2017-11-25T08:06:57.591Z,5.64
2017-11-25T08:08:06.399Z,5.64
2017-11-25T08:09:15.210Z,5.67
2017-11-25T08:10:24.020Z,5.64
2017-11-25T08:11:32.829Z,5.69
2017-11-25T08:12:41.635Z,5.64
2017-11-25T08:13:50.170Z,5.7
2017-11-25T08:14:58.977Z,5.7
2017-11-25T08:16:07.785Z,5.69
2017-11-25T08:17:16.601Z,5.72
2017-11-25T08:18:25.413Z,5.77
2017-11-25T08:19:34.225Z,5.78
2017-11-25T08:20:43.036Z,5.73
2017-11-25T08:21:51.839Z,5.72
2017-11-25T08:23:00.381Z,5.73
2017-11-25T08:24:09.466Z,5.82
2017-11-25T08:25:18.546Z,5.77
2017-11-25T08:26:27.360Z,5.85
2017-11-25T08:27:36.170Z,5.85
2017-11-25T08:28:44.706Z,5.8
2017-11-25T08:29:53.519Z,5.82
2017-11-25T08:31:02.328Z,5.85
2017-11-25T08:32:11.415Z,5.85
2017-11-25T08:33:20.224Z,5.87
2017-11-25T08:34:29.033Z,5.82
2017-11-25T08:35:37.848Z,5.8
2017-11-25T08:36:46.656Z,5.88
2017-11-25T08:37:55.192Z,5.92
2017-11-25T08:39:03.730Z,5.81
2017-11-25T08:40:12.541Z,5.95
2017-11-25T08:41:21.080Z,5.96
2017-11-25T08:42:29.895Z,5.99
2017-11-25T08:43:38.432Z,5.92
2017-11-25T08:44:47.259Z,5.95
2017-11-25T08:45:55.996Z,5.89
2017-11-25T08:47:04.532Z,5.95
2017-11-25T08:48:13.067Z,5.92
2017-11-25T08:49:21.603Z,5.91
2017-11-25T08:50:30.139Z,5.96
2017-11-25T08:51:39.448Z,5.92
2017-11-25T08:52:48.531Z,5.98
2017-11-25T08:53:57.081Z,5.91
2017-11-25T08:55:06.172Z,5.98
2017-11-25T08:56:14.715Z,5.91
2017-11-25T08:57:23.796Z,5.96
2017-11-25T08:58:32.333Z,5.98
2017-11-25T08:59:41.142Z,5.92
2017-11-25T09:00:49.951Z,5.98
2017-11-25T09:01:59.038Z,6
2017-11-25T09:03:08.120Z,5.99
2017-11-25T09:04:17.753Z,5.98
2017-11-25T09:05:26.559Z,6
2017-11-25T09:06:35.095Z,5.95
2017-11-25T09:07:44.445Z,5.99
2017-11-25T09:08:53.254Z,5.92
2017-11-25T09:10:02.066Z,5.92
2017-11-25T09:11:10.873Z,5.91
2017-11-25T09:12:19.419Z,5.88
2017-11-25T09:13:27.957Z,5.84
2017-11-25T09:14:36.772Z,5.87
2017-11-25T09:15:46.120Z,5.87
2017-11-25T09:16:54.658Z,5.87
2017-11-25T09:18:03.200Z,5.85
2017-11-25T09:19:11.861Z,5.82
2017-11-25T09:20:20.702Z,5.88
2017-11-25T09:21:29.346Z,5.98
2017-11-25T09:22:37.878Z,5.92
2017-11-25T09:23:46.687Z,6.02
2017-11-25T09:24:55.225Z,6.02
2017-11-25T09:26:03.765Z,6.09
2017-11-25T09:27:12.893Z,6.06
2017-11-25T09:28:22.454Z,6.02
2017-11-25T09:29:31.558Z,6.09
2017-11-25T09:30:40.374Z,6.03
2017-11-25T09:31:49.189Z,6.02
2017-11-25T09:32:58.270Z,6.05
2017-11-25T09:34:07.078Z,6.09
2017-11-25T09:35:15.618Z,6.2
2017-11-25T09:36:24.152Z,6.17
2017-11-25T09:37:32.959Z,6.06
2017-11-25T09:38:42.040Z,6.15
2017-11-25T09:39:50.583Z,6.21
2017-11-25T09:40:59.676Z,6.14
2017-11-25T09:42:08.808Z,6.26
2017-11-25T09:43:17.617Z,6.31
2017-11-25T09:44:26.426Z,6.25
2017-11-25T09:45:34.961Z,6.33
2017-11-25T09:46:44.109Z,6.34
2017-11-25T09:47:52.921Z,6.36
2017-11-25T09:49:01.461Z,6.43
2017-11-25T09:50:10.276Z,6.33
2017-11-25T09:51:19.357Z,6.52
2017-11-25T09:52:27.897Z,6.52
2017-11-25T09:53:36.431Z,6.6
2017-11-25T09:54:45.511Z,6.58
2017-11-25T09:55:54.325Z,6.58
2017-11-25T09:57:02.861Z,6.6
2017-11-25T09:58:11.746Z,6.62
2017-11-25T09:59:20.597Z,6.62
2017-11-25T10:00:29.136Z,6.75
2017-11-25T10:01:37.950Z,6.72
2017-11-25T10:02:46.584Z,6.82
2017-11-25T10:03:55.125Z,6.82
2017-11-25T10:05:03.991Z,6.75
2017-11-25T10:06:13.082Z,6.8
2017-11-25T10:07:22.429Z,6.79
2017-11-25T10:08:31.512Z,6.82
2017-11-25T10:09:40.160Z,6.97
2017-11-25T10:10:48.975Z,6.94
2017-11-25T10:11:57.514Z,7.03
2017-11-25T10:13:06.608Z,7.01
2017-11-25T10:14:15.978Z,7.13
2017-11-25T10:15:24.792Z,7.03
2017-11-25T10:16:33.874Z,7.11
2017-11-25T10:17:42.411Z,7.16
2017-11-25T10:18:51.525Z,7.26
2017-11-25T10:20:00.342Z,7.22
2017-11-25T10:21:09.152Z,7.3
2017-11-25T10:22:17.693Z,7.26
2017-11-25T10:23:26.768Z,7.36
2017-11-25T10:24:35.583Z,7.37
2017-11-25T10:25:44.395Z,7.48
2017-11-25T10:26:52.988Z,7.56
2017-11-25T10:28:01.799Z,7.56
2017-11-25T10:29:10.615Z,7.47
2017-11-25T10:30:19.152Z,7.49
2017-11-25T10:31:27.690Z,7.56
2017-11-25T10:32:36.231Z,7.7
2017-11-25T10:33:45.041Z,7.68
2017-11-25T10:34:54.122Z,7.71
2017-11-25T10:36:03.209Z,7.7
2017-11-25T10:37:12.019Z,7.7
2017-11-25T10:38:20.856Z,7.73
2017-11-25T10:39:29.677Z,7.74
2017-11-25T10:40:38.758Z,7.78
2017-11-25T10:41:47.847Z,7.75
2017-11-25T10:42:56.716Z,7.68
2017-11-25T10:44:05.529Z,7.68
2017-11-25T10:45:14.068Z,7.73
2017-11-25T10:46:22.933Z,7.52
2017-11-25T10:47:31.472Z,7.55
2017-11-25T10:48:40.289Z,7.54
2017-11-25T10:49:48.838Z,7.51
2017-11-25T10:50:57.379Z,7.55
2017-11-25T10:52:06.191Z,7.49
2017-11-25T10:53:14.730Z,7.41
2017-11-25T10:54:23.266Z,7.44
2017-11-25T10:55:32.353Z,7.44
2017-11-25T10:56:40.898Z,7.36
2017-11-25T10:57:49.712Z,7.37
2017-11-25T10:58:58.789Z,7.4
2017-11-25T11:00:07.329Z,7.49
2017-11-25T11:01:16.140Z,7.51
2017-11-25T11:02:24.682Z,7.52
2017-11-25T11:03:33.758Z,7.58
2017-11-25T11:04:42.309Z,7.7
2017-11-25T11:05:51.124Z,7.74
2017-11-25T11:06:59.942Z,7.78
2017-11-25T11:08:09.021Z,7.89
2017-11-25T11:09:17.561Z,7.82
2017-11-25T11:10:26.649Z,7.95
2017-11-25T11:11:35.463Z,8.04
2017-11-25T11:12:44.115Z,8.13
2017-11-25T11:13:53.225Z,8.17
2017-11-25T11:15:02.037Z,8.22
2017-11-25T11:16:10.849Z,8.17
2017-11-25T11:17:19.385Z,8.19
2017-11-25T11:18:28.196Z,8.34
2017-11-25T11:19:37.540Z,8.39
2017-11-25T11:20:46.395Z,8.32
2017-11-25T11:21:55.768Z,8.35
2017-11-25T11:23:04.852Z,8.31
2017-11-25T11:24:14.034Z,8.34
2017-11-25T11:25:22.851Z,8.36
2017-11-25T11:26:32.219Z,8.35
2017-11-25T11:27:41.031Z,8.34
2017-11-25T11:28:50.094Z,8.42
2017-11-25T11:29:58.908Z,8.44
2017-11-25T11:31:07.720Z,8.46
2017-11-25T11:32:16.532Z,8.42
2017-11-25T11:33:25.348Z,8.42
2017-11-25T11:34:34.185Z,8.47
2017-11-25T11:35:43.577Z,8.34
2017-11-25T11:36:52.396Z,8.4
2017-11-25T11:38:01.234Z,8.36
2017-11-25T11:39:09.775Z,8.34
2017-11-25T11:40:18.857Z,8.34
2017-11-25T11:41:27.398Z,8.36
2017-11-25T11:42:36.493Z,8.47
2017-11-25T11:43:45.040Z,8.35
2017-11-25T11:44:54.120Z,8.43
2017-11-25T11:46:02.939Z,8.42
2017-11-25T11:47:11.804Z,8.43
2017-11-25T11:48:20.347Z,8.39
2017-11-25T11:49:29.164Z,8.46
2017-11-25T11:50:37.962Z,8.29
2017-11-25T11:51:46.789Z,8.34
2017-11-25T11:52:55.601Z,8.34
2017-11-25T11:54:04.180Z,8.39
2017-11-25T11:55:13.804Z,8.36
2017-11-25T11:56:22.897Z,8.32
2017-11-25T11:57:31.978Z,8.36
2017-11-25T11:58:40.788Z,8.32
2017-11-25T11:59:49.606Z,8.32
2017-11-25T12:00:58.140Z,8.31
2017-11-25T12:02:06.950Z,8.25
2017-11-25T12:03:16.047Z,8.26
2017-11-25T12:04:24.641Z,8.24
2017-11-25T12:05:34.086Z,8.22
2017-11-25T12:06:42.905Z,8.26
2017-11-25T12:07:51.441Z,8.22
2017-11-25T12:08:59.995Z,8.24
2017-11-25T12:10:09.712Z,8.24
2017-11-25T12:11:18.796Z,8.24
2017-11-25T12:12:27.880Z,8.28
2017-11-25T12:13:37.155Z,8.24
2017-11-25T12:14:45.971Z,8.21
2017-11-25T12:15:54.513Z,8.22
2017-11-25T12:17:03.327Z,8.22
2017-11-25T12:18:12.688Z,8.26
2017-11-25T12:19:21.233Z,8.21
2017-11-25T12:20:29.770Z,8.19
2017-11-25T12:21:38.317Z,8.11
2017-11-25T12:22:47.185Z,8.14
2017-11-25T12:23:56.560Z,8.14
2017-11-25T12:25:05.648Z,8.17
2017-11-25T12:26:14.554Z,8.17
2017-11-25T12:27:24.676Z,8.17
2017-11-25T12:28:33.214Z,8.21
2017-11-25T12:29:42.023Z,8.21
2017-11-25T12:30:50.844Z,8.22
2017-11-25T12:31:59.400Z,8.26
2017-11-25T12:33:08.068Z,8.28
2017-11-25T12:34:17.069Z,8.26
2017-11-25T12:35:26.064Z,8.35
2017-11-25T12:36:35.068Z,8.29
2017-11-25T12:37:44.151Z,8.39
2017-11-25T12:38:52.717Z,8.35
2017-11-25T12:40:01.536Z,8.4
2017-11-25T12:41:10.411Z,8.34
2017-11-25T12:42:19.576Z,8.34
2017-11-25T12:43:28.195Z,8.34
2017-11-25T12:44:36.743Z,8.36
2017-11-25T12:45:45.841Z,8.36
2017-11-25T12:46:54.394Z,8.31
2017-11-25T12:48:03.242Z,8.36
2017-11-25T12:49:11.791Z,8.35
2017-11-25T12:50:20.378Z,8.34
2017-11-25T12:51:29.470Z,8.34
2017-11-25T12:52:38.086Z,8.34
2017-11-25T12:53:46.970Z,8.4
2017-11-25T12:54:55.787Z,8.34
2017-11-25T12:56:04.604Z,8.31
2017-11-25T12:57:13.154Z,8.34
2017-11-25T12:58:22.793Z,8.34
2017-11-25T12:59:31.615Z,8.36
2017-11-25T13:00:40.449Z,8.39
2017-11-25T13:01:49.536Z,8.47
2017-11-25T13:02:58.229Z,8.36
2017-11-25T13:04:07.096Z,8.44
2017-11-25T13:05:16.212Z,8.43
2017-11-25T13:06:24.767Z,8.4
2017-11-25T13:07:33.308Z,8.4
2017-11-25T13:08:42.681Z,8.44
2017-11-25T13:09:51.306Z,8.42
2017-11-25T13:11:00.120Z,8.31
2017-11-25T13:12:09.216Z,8.4
2017-11-25T13:13:18.301Z,8.4
2017-11-25T13:14:26.841Z,8.39
2017-11-25T13:15:35.396Z,8.49
2017-11-25T13:16:44.251Z,8.42
2017-11-25T13:17:52.799Z,8.46
2017-11-25T13:19:01.340Z,8.42
2017-11-25T13:20:09.882Z,8.42
2017-11-25T13:21:18.422Z,8.35
2017-11-25T13:22:27.510Z,8.46
2017-11-25T13:23:36.607Z,8.32
2017-11-25T13:24:45.146Z,8.39
2017-11-25T13:25:53.686Z,8.5
2017-11-25T13:27:02.233Z,8.4
2017-11-25T13:28:11.317Z,8.4
2017-11-25T13:29:20.408Z,8.4
2017-11-25T13:30:28.947Z,8.4
2017-11-25T13:31:38.030Z,8.43
2017-11-25T13:32:47.263Z,8.42
2017-11-25T13:33:55.942Z,8.46
2017-11-25T13:35:04.484Z,8.46
2017-11-25T13:36:13.025Z,8.36
2017-11-25T13:37:21.568Z,8.52
2017-11-25T13:38:30.396Z,8.49
2017-11-25T13:39:39.476Z,8.4
2017-11-25T13:40:48.559Z,8.35
2017-11-25T13:41:57.103Z,8.32
2017-11-25T13:43:05.946Z,8.4
2017-11-25T13:44:15.032Z,8.32
2017-11-25T13:45:23.587Z,8.22
2017-11-25T13:46:32.396Z,8.21
2017-11-25T13:47:41.211Z,8.13
2017-11-25T13:48:50.295Z,8.24
2017-11-25T13:49:59.106Z,8.19
2017-11-25T13:51:07.914Z,8.13
2017-11-25T13:52:16.452Z,8.13
2017-11-25T13:53:25.265Z,8.16
2017-11-25T13:54:34.359Z,8.17
2017-11-25T13:55:43.169Z,8.09
2017-11-25T13:56:51.984Z,8.1
2017-11-25T13:58:00.797Z,8.06
2017-11-25T13:59:10.171Z,8.03
2017-11-25T14:00:18.988Z,8.03
2017-11-25T14:01:27.526Z,7.98
2017-11-25T14:02:36.609Z,7.96
2017-11-25T14:03:45.145Z,7.96
2017-11-25T14:04:53.954Z,7.92
2017-11-25T14:06:02.490Z,7.91
2017-11-25T14:07:11.304Z,7.86
2017-11-25T14:08:20.111Z,7.85
2017-11-25T14:09:28.921Z,7.88
2017-11-25T14:10:37.461Z,7.88
2017-11-25T14:11:46.267Z,7.82
2017-11-25T14:12:54.802Z,7.78
2017-11-25T14:14:03.888Z,7.74
2017-11-25T14:15:12.809Z,7.7
2017-11-25T14:16:21.679Z,7.67
2017-11-25T14:17:30.218Z,7.74
2017-11-25T14:18:38.776Z,7.74
2017-11-25T14:19:47.318Z,7.73
2017-11-25T14:20:56.123Z,7.64
2017-11-25T14:22:04.949Z,7.61
2017-11-25T14:23:13.488Z,7.68
2017-11-25T14:24:22.027Z,7.71
2017-11-25T14:25:31.126Z,7.67
2017-11-25T14:26:40.217Z,7.52
2017-11-25T14:27:48.756Z,7.64
2017-11-25T14:28:57.660Z,7.58
2017-11-25T14:30:06.196Z,7.55
2017-11-25T14:31:14.736Z,7.54
2017-11-25T14:32:23.551Z,7.55
2017-11-25T14:33:32.366Z,7.63
2017-11-25T14:34:41.183Z,7.58
2017-11-25T14:35:50.269Z,7.63
2017-11-25T14:36:58.809Z,7.56
2017-11-25T14:38:07.625Z,7.52
2017-11-25T14:39:18.032Z,7.55
2017-11-25T14:40:28.516Z,7.52
2017-11-25T14:41:37.340Z,7.45
2017-11-25T14:42:46.152Z,7.47
2017-11-25T14:43:54.969Z,7.56
2017-11-25T14:45:03.793Z,7.52
2017-11-25T14:46:12.364Z,7.52
2017-11-25T14:47:20.876Z,7.58
2017-11-25T14:48:29.735Z,7.55
2017-11-25T14:49:38.688Z,7.52
2017-11-25T14:50:47.497Z,7.59
2017-11-25T14:51:56.616Z,7.56
2017-11-25T14:53:05.698Z,7.74
2017-11-25T14:54:14.520Z,7.63
2017-11-25T14:55:23.069Z,7.59
2017-11-25T14:56:32.304Z,7.67
2017-11-25T14:57:42.378Z,7.67
2017-11-25T14:58:53.253Z,7.64
2017-11-25T15:00:01.903Z,7.61
2017-11-25T15:01:10.447Z,7.71
2017-11-25T15:02:19.284Z,7.7
2017-11-25T15:03:28.435Z,7.68
2017-11-25T15:04:37.242Z,7.61
2017-11-25T15:05:46.060Z,7.74
2017-11-25T15:06:55.133Z,7.71
2017-11-25T15:08:03.947Z,7.67
2017-11-25T15:09:13.029Z,7.63
2017-11-25T15:10:21.570Z,7.63
2017-11-25T15:11:30.407Z,7.61
2017-11-25T15:12:38.948Z,7.55
2017-11-25T15:13:47.922Z,7.58
2017-11-25T15:14:56.464Z,7.49
2017-11-25T15:16:05.290Z,7.45
2017-11-25T15:17:13.864Z,7.45
2017-11-25T15:18:23.018Z,7.37
2017-11-25T15:19:32.094Z,7.26